sensor_id;sensor_type;location;lat;lon;timestamp;pressure;altitude;pressure_sealevel;temperature;humidity
66273;BME280;58450;52.150;4.466;2023-02-08T00:01:12;103932.81;;;0.85;100.00
66273;BME280;58450;52.150;4.466;2023-02-08T00:03:43;103929.34;;;0.83;100.00
66273;BME280;58450;52.150;4.466;2023-02-08T00:06:11;103935.66;;;0.79;100.00
66273;BME280;58450;52.150;4.466;2023-02-08T00:08:39;103921.50;;;0.78;100.00
66273;BME280;58450;52.150;4.466;2023-02-08T00:11:07;103915.38;;;0.76;100.00
66273;BME280;58450;52.150;4.466;2023-02-08T00:13:37;103905.69;;;0.75;100.00
66273;BME280;58450;52.150;4.466;2023-02-08T00:16:06;103904.84;;;0.75;100.00
66273;BME280;58450;52.150;4.466;2023-02-08T00:18:34;103900.41;;;0.75;100.00
66273;BME280;58450;52.150;4.466;2023-02-08T00:21:08;103897.72;;;0.77;100.00
66273;BME280;58450;52.150;4.466;2023-02-08T00:23:36;103892.50;;;0.73;100.00
66273;BME280;58450;52.150;4.466;2023-02-08T00:26:04;103897.75;;;0.75;100.00
66273;BME280;58450;52.150;4.466;2023-02-08T00:28:31;103893.41;;;0.72;100.00
66273;BME280;58450;52.150;4.466;2023-02-08T00:30:59;103889.94;;;0.70;100.00
66273;BME280;58450;52.150;4.466;2023-02-08T00:33:26;103900.56;;;0.69;100.00
66273;BME280;58450;52.150;4.466;2023-02-08T00:35:57;103897.94;;;0.69;100.00
66273;BME280;58450;52.150;4.466;2023-02-08T00:38:27;103894.41;;;0.68;100.00
66273;BME280;58450;52.150;4.466;2023-02-08T00:40:55;103901.47;;;0.69;100.00
66273;BME280;58450;52.150;4.466;2023-02-08T00:43:23;103891.81;;;0.67;100.00
66273;BME280;58450;52.150;4.466;2023-02-08T00:45:53;103890.97;;;0.65;100.00
66273;BME280;58450;52.150;4.466;2023-02-08T00:48:21;103899.84;;;0.64;100.00
66273;BME280;58450;52.150;4.466;2023-02-08T00:50:59;103913.16;;;0.62;100.00
66273;BME280;58450;52.150;4.466;2023-02-08T00:53:34;103906.16;;;0.59;100.00
66273;BME280;58450;52.150;4.466;2023-02-08T00:56:03;103905.38;;;0.56;100.00
66273;BME280;58450;52.150;4.466;2023-02-08T00:58:31;103911.72;;;0.50;100.00
66273;BME280;58450;52.150;4.466;2023-02-08T01:01:00;103906.47;;;0.49;100.00
66273;BME280;58450;52.150;4.466;2023-02-08T01:03:28;103911.78;;;0.49;100.00
66273;BME280;58450;52.150;4.466;2023-02-08T01:05:59;103915.28;;;0.49;100.00
66273;BME280;58450;52.150;4.466;2023-02-08T01:08:27;103919.75;;;0.47;100.00
66273;BME280;58450;52.150;4.466;2023-02-08T01:11:03;103924.28;;;0.43;100.00
66273;BME280;58450;52.150;4.466;2023-02-08T01:13:31;103920.88;;;0.40;100.00
66273;BME280;58450;52.150;4.466;2023-02-08T01:16:08;103914.75;;;0.38;100.00
66273;BME280;58450;52.150;4.466;2023-02-08T01:18:37;103914.78;;;0.36;100.00
66273;BME280;58450;52.150;4.466;2023-02-08T01:21:07;103917.44;;;0.36;100.00
66273;BME280;58450;52.150;4.466;2023-02-08T01:23:36;103917.56;;;0.32;100.00
66273;BME280;58450;52.150;4.466;2023-02-08T01:26:06;103914.91;;;0.32;100.00
66273;BME280;58450;52.150;4.466;2023-02-08T01:28:35;103917.50;;;0.35;100.00
66273;BME280;58450;52.150;4.466;2023-02-08T01:31:04;103909.53;;;0.35;100.00
66273;BME280;58450;52.150;4.466;2023-02-08T01:33:33;103899.88;;;0.32;100.00
66273;BME280;58450;52.150;4.466;2023-02-08T01:36:01;103904.31;;;0.32;100.00
66273;BME280;58450;52.150;4.466;2023-02-08T01:38:30;103907.88;;;0.31;100.00
66273;BME280;58450;52.150;4.466;2023-02-08T01:40:58;103899.94;;;0.31;100.00
66273;BME280;58450;52.150;4.466;2023-02-08T01:43:30;103893.75;;;0.30;100.00
66273;BME280;58450;52.150;4.466;2023-02-08T01:45:59;103892.06;;;0.27;100.00
66273;BME280;58450;52.150;4.466;2023-02-08T01:48:30;103890.25;;;0.29;100.00
66273;BME280;58450;52.150;4.466;2023-02-08T01:51:04;103889.38;;;0.29;100.00
66273;BME280;58450;52.150;4.466;2023-02-08T01:53:38;103895.63;;;0.26;100.00
66273;BME280;58450;52.150;4.466;2023-02-08T01:56:10;103884.06;;;0.29;100.00
66273;BME280;58450;52.150;4.466;2023-02-08T01:58:45;103880.50;;;0.30;100.00
66273;BME280;58450;52.150;4.466;2023-02-08T02:01:17;103879.66;;;0.29;100.00
66273;BME280;58450;52.150;4.466;2023-02-08T02:03:44;103886.72;;;0.29;100.00
66273;BME280;58450;52.150;4.466;2023-02-08T02:06:16;103882.34;;;0.28;100.00
66273;BME280;58450;52.150;4.466;2023-02-08T02:08:52;103877.09;;;0.26;100.00
66273;BME280;58450;52.150;4.466;2023-02-08T02:11:24;103873.72;;;0.21;100.00
66273;BME280;58450;52.150;4.466;2023-02-08T02:13:53;103879.03;;;0.20;100.00
66273;BME280;58450;52.150;4.466;2023-02-08T02:16:21;103884.34;;;0.20;100.00
66273;BME280;58450;52.150;4.466;2023-02-08T02:18:48;103881.66;;;0.21;100.00
66273;BME280;58450;52.150;4.466;2023-02-08T02:21:39;103880.75;;;0.22;100.00
66273;BME280;58450;52.150;4.466;2023-02-08T02:24:41;103872.81;;;0.22;100.00
66273;BME280;58450;52.150;4.466;2023-02-08T02:27:30;103878.88;;;0.26;100.00
66273;BME280;58450;52.150;4.466;2023-02-08T02:30:40;103882.41;;;0.26;100.00
66273;BME280;58450;52.150;4.466;2023-02-08T02:33:41;103882.47;;;0.23;100.00
66273;BME280;58450;52.150;4.466;2023-02-08T02:36:27;103875.38;;;0.24;100.00
66273;BME280;58450;52.150;4.466;2023-02-08T02:39:10;103879.84;;;0.23;100.00
66273;BME280;58450;52.150;4.466;2023-02-08T02:41:55;103867.44;;;0.24;100.00
66273;BME280;58450;52.150;4.466;2023-02-08T02:44:53;103875.44;;;0.22;100.00
66273;BME280;58450;52.150;4.466;2023-02-08T02:47:36;103877.28;;;0.20;100.00
66273;BME280;58450;52.150;4.466;2023-02-08T02:50:18;103867.53;;;0.21;100.00
66273;BME280;58450;52.150;4.466;2023-02-08T02:52:58;103872.81;;;0.21;100.00
66273;BME280;58450;52.150;4.466;2023-02-08T02:55:31;103864.97;;;0.18;100.00
66273;BME280;58450;52.150;4.466;2023-02-08T02:58:03;103869.41;;;0.17;100.00
66273;BME280;58450;52.150;4.466;2023-02-08T03:00:32;103861.56;;;0.14;100.00
66273;BME280;58450;52.150;4.466;2023-02-08T03:03:00;103858.09;;;0.12;100.00
66273;BME280;58450;52.150;4.466;2023-02-08T03:05:29;103858.09;;;0.10;100.00
66273;BME280;58450;52.150;4.466;2023-02-08T03:08:04;103857.25;;;0.10;100.00
66273;BME280;58450;52.150;4.466;2023-02-08T03:10:59;103846.75;;;0.07;100.00
66273;BME280;58450;52.150;4.466;2023-02-08T03:14:08;103849.41;;;0.05;100.00
66273;BME280;58450;52.150;4.466;2023-02-08T03:17:03;103845.91;;;0.05;100.00
66273;BME280;58450;52.150;4.466;2023-02-08T03:19:46;103844.22;;;0.02;100.00
66273;BME280;58450;52.150;4.466;2023-02-08T03:22:28;103851.34;;;0.00;100.00
66273;BME280;58450;52.150;4.466;2023-02-08T03:25:12;103850.56;;;-0.04;100.00
66273;BME280;58450;52.150;4.466;2023-02-08T03:27:51;103848.88;;;-0.06;100.00
66273;BME280;58450;52.150;4.466;2023-02-08T03:30:32;103845.41;;;-0.08;100.00
66273;BME280;58450;52.150;4.466;2023-02-08T03:33:13;103850.72;;;-0.10;100.00
66273;BME280;58450;52.150;4.466;2023-02-08T03:35:49;103849.00;;;-0.11;100.00
66273;BME280;58450;52.150;4.466;2023-02-08T03:38:26;103841.13;;;-0.14;100.00
66273;BME280;58450;52.150;4.466;2023-02-08T03:41:01;103829.69;;;-0.14;100.00
66273;BME280;58450;52.150;4.466;2023-02-08T03:43:39;103831.47;;;-0.15;100.00
66273;BME280;58450;52.150;4.466;2023-02-08T03:46:13;103845.56;;;-0.14;100.00
66273;BME280;58450;52.150;4.466;2023-02-08T03:48:51;103842.03;;;-0.13;100.00
66273;BME280;58450;52.150;4.466;2023-02-08T03:51:23;103831.50;;;-0.17;100.00
66273;BME280;58450;52.150;4.466;2023-02-08T03:53:57;103841.22;;;-0.17;100.00
66273;BME280;58450;52.150;4.466;2023-02-08T03:56:36;103837.88;;;-0.24;100.00
66273;BME280;58450;52.150;4.466;2023-02-08T03:59:12;103839.78;;;-0.29;100.00
66273;BME280;58450;52.150;4.466;2023-02-08T04:01:50;103843.38;;;-0.32;100.00
66273;BME280;58450;52.150;4.466;2023-02-08T04:04:26;103842.44;;;-0.29;100.00
66273;BME280;58450;52.150;4.466;2023-02-08T04:06:58;103837.25;;;-0.34;100.00
66273;BME280;58450;52.150;4.466;2023-02-08T04:09:27;103837.25;;;-0.34;100.00
66273;BME280;58450;52.150;4.466;2023-02-08T04:11:54;103838.16;;;-0.35;100.00
66273;BME280;58450;52.150;4.466;2023-02-08T04:14:22;103846.47;;;-0.16;100.00
66273;BME280;58450;52.150;4.466;2023-02-08T04:16:49;103843.84;;;-0.16;100.00
66273;BME280;58450;52.150;4.466;2023-02-08T04:19:17;103845.59;;;-0.16;100.00
66273;BME280;58450;52.150;4.466;2023-02-08T04:21:45;103837.56;;;-0.13;100.00
66273;BME280;58450;52.150;4.466;2023-02-08T04:24:13;103835.00;;;-0.16;100.00
66273;BME280;58450;52.150;4.466;2023-02-08T04:26:41;103833.28;;;-0.17;100.00
66273;BME280;58450;52.150;4.466;2023-02-08T04:29:09;103829.88;;;-0.22;100.00
66273;BME280;58450;52.150;4.466;2023-02-08T04:31:36;103819.38;;;-0.25;100.00
66273;BME280;58450;52.150;4.466;2023-02-08T04:34:04;103824.69;;;-0.25;100.00
66273;BME280;58450;52.150;4.466;2023-02-08T04:36:31;103817.72;;;-0.30;100.00
66273;BME280;58450;52.150;4.466;2023-02-08T04:38:59;103820.44;;;-0.31;100.00
66273;BME280;58450;52.150;4.466;2023-02-08T04:41:26;103824.00;;;-0.34;100.00
66273;BME280;58450;52.150;4.466;2023-02-08T04:43:55;103815.22;;;-0.34;100.00
66273;BME280;58450;52.150;4.466;2023-02-08T04:46:23;103811.66;;;-0.33;100.00
66273;BME280;58450;52.150;4.466;2023-02-08T04:48:50;103815.25;;;-0.36;100.00
66273;BME280;58450;52.150;4.466;2023-02-08T04:51:18;103808.22;;;-0.37;100.00
66273;BME280;58450;52.150;4.466;2023-02-08T04:53:45;103809.88;;;-0.33;100.00
66273;BME280;58450;52.150;4.466;2023-02-08T04:56:13;103809.94;;;-0.34;100.00
66273;BME280;58450;52.150;4.466;2023-02-08T04:58:40;103803.75;;;-0.35;100.00
66273;BME280;58450;52.150;4.466;2023-02-08T05:01:09;103794.97;;;-0.35;100.00
66273;BME280;58450;52.150;4.466;2023-02-08T05:03:36;103797.63;;;-0.37;100.00
66273;BME280;58450;52.150;4.466;2023-02-08T05:06:04;103801.03;;;-0.32;100.00
66273;BME280;58450;52.150;4.466;2023-02-08T05:08:32;103801.94;;;-0.33;100.00
66273;BME280;58450;52.150;4.466;2023-02-08T05:11:00;103805.53;;;-0.35;100.00
66273;BME280;58450;52.150;4.466;2023-02-08T05:13:27;103801.28;;;-0.41;100.00
66273;BME280;58450;52.150;4.466;2023-02-08T05:15:55;103800.50;;;-0.45;100.00
66273;BME280;58450;52.150;4.466;2023-02-08T05:18:24;103804.88;;;-0.43;100.00
66273;BME280;58450;52.150;4.466;2023-02-08T05:20:55;103790.78;;;-0.44;100.00
66273;BME280;58450;52.150;4.466;2023-02-08T05:23:23;103807.53;;;-0.43;100.00
66273;BME280;58450;52.150;4.466;2023-02-08T05:25:51;103808.53;;;-0.48;100.00
66273;BME280;58450;52.150;4.466;2023-02-08T05:28:18;103813.78;;;-0.46;100.00
66273;BME280;58450;52.150;4.466;2023-02-08T05:30:46;103808.66;;;-0.52;100.00
66273;BME280;58450;52.150;4.466;2023-02-08T05:33:14;103803.38;;;-0.52;100.00
66273;BME280;58450;52.150;4.466;2023-02-08T05:35:44;103799.06;;;-0.56;100.00
66273;BME280;58450;52.150;4.466;2023-02-08T05:38:12;103791.38;;;-0.67;100.00
66273;BME280;58450;52.150;4.466;2023-02-08T05:40:39;103801.34;;;-0.77;100.00
66273;BME280;58450;52.150;4.466;2023-02-08T05:43:07;103785.44;;;-0.76;100.00
66273;BME280;58450;52.150;4.466;2023-02-08T05:45:34;103790.47;;;-0.66;100.00
66273;BME280;58450;52.150;4.466;2023-02-08T05:48:02;103792.31;;;-0.68;100.00
66273;BME280;58450;52.150;4.466;2023-02-08T05:50:29;103794.19;;;-0.73;100.00
66273;BME280;58450;52.150;4.466;2023-02-08T05:52:58;103793.28;;;-0.72;100.00
66273;BME280;58450;52.150;4.466;2023-02-08T05:55:26;103786.34;;;-0.77;100.00
66273;BME280;58450;52.150;4.466;2023-02-08T05:57:54;103788.06;;;-0.76;100.00
66273;BME280;58450;52.150;4.466;2023-02-08T06:00:22;103780.34;;;-0.83;100.00
66273;BME280;58450;52.150;4.466;2023-02-08T06:02:50;103781.28;;;-0.86;100.00
66273;BME280;58450;52.150;4.466;2023-02-08T06:05:18;103789.28;;;-0.87;100.00
66273;BME280;58450;52.150;4.466;2023-02-08T06:07:45;103795.50;;;-0.90;100.00
66273;BME280;58450;52.150;4.466;2023-02-08T06:10:14;103794.63;;;-0.89;100.00
66273;BME280;58450;52.150;4.466;2023-02-08T06:12:42;103793.03;;;-0.98;100.00
66273;BME280;58450;52.150;4.466;2023-02-08T06:15:09;103797.56;;;-1.01;100.00
66273;BME280;58450;52.150;4.466;2023-02-08T06:17:37;103792.19;;;-0.98;100.00
66273;BME280;58450;52.150;4.466;2023-02-08T06:20:05;103793.03;;;-0.98;100.00
66273;BME280;58450;52.150;4.466;2023-02-08T06:22:33;103804.44;;;-0.94;100.00
66273;BME280;58450;52.150;4.466;2023-02-08T06:25:01;103801.78;;;-0.94;100.00
66273;BME280;58450;52.150;4.466;2023-02-08T06:27:30;103803.53;;;-0.93;100.00
66273;BME280;58450;52.150;4.466;2023-02-08T06:29:58;103796.56;;;-0.97;100.00
66273;BME280;58450;52.150;4.466;2023-02-08T06:32:25;103795.69;;;-0.98;100.00
66273;BME280;58450;52.150;4.466;2023-02-08T06:34:53;103806.34;;;-1.01;100.00
66273;BME280;58450;52.150;4.466;2023-02-08T06:37:21;103798.47;;;-1.02;100.00
66273;BME280;58450;52.150;4.466;2023-02-08T06:39:49;103793.19;;;-1.02;100.00
66273;BME280;58450;52.150;4.466;2023-02-08T06:42:16;103786.25;;;-1.08;100.00
66273;BME280;58450;52.150;4.466;2023-02-08T06:44:45;103785.50;;;-1.13;100.00
66273;BME280;58450;52.150;4.466;2023-02-08T06:47:15;103786.38;;;-1.13;100.00
66273;BME280;58450;52.150;4.466;2023-02-08T06:49:42;103781.09;;;-1.13;100.00
66273;BME280;58450;52.150;4.466;2023-02-08T06:52:09;103782.84;;;-1.13;100.00
66273;BME280;58450;52.150;4.466;2023-02-08T06:54:37;103789.03;;;-1.13;100.00
66273;BME280;58450;52.150;4.466;2023-02-08T06:57:04;103797.78;;;-1.12;100.00
66273;BME280;58450;52.150;4.466;2023-02-08T06:59:33;103794.31;;;-1.14;100.00
66273;BME280;58450;52.150;4.466;2023-02-08T07:02:02;103793.41;;;-1.12;100.00
66273;BME280;58450;52.150;4.466;2023-02-08T07:04:30;103793.34;;;-1.10;100.00
66273;BME280;58450;52.150;4.466;2023-02-08T07:06:58;103789.72;;;-1.06;100.00
66273;BME280;58450;52.150;4.466;2023-02-08T07:09:25;103781.94;;;-1.12;100.00
66273;BME280;58450;52.150;4.466;2023-02-08T07:11:53;103781.09;;;-1.14;100.00
66273;BME280;58450;52.150;4.466;2023-02-08T07:14:20;103775.91;;;-1.17;100.00
66273;BME280;58450;52.150;4.466;2023-02-08T07:16:47;103779.34;;;-1.14;100.00
66273;BME280;58450;52.150;4.466;2023-02-08T07:19:16;103781.19;;;-1.17;100.00
66273;BME280;58450;52.150;4.466;2023-02-08T07:21:44;103772.25;;;-1.12;100.00
66273;BME280;58450;52.150;4.466;2023-02-08T07:24:11;103774.00;;;-1.11;100.00
66273;BME280;58450;52.150;4.466;2023-02-08T07:26:39;103779.22;;;-1.09;100.00
66273;BME280;58450;52.150;4.466;2023-02-08T07:29:06;103779.41;;;-1.17;100.00
66273;BME280;58450;52.150;4.466;2023-02-08T07:31:34;103779.19;;;-1.08;100.00
66273;BME280;58450;52.150;4.466;2023-02-08T07:34:01;103776.59;;;-1.09;100.00
66273;BME280;58450;52.150;4.466;2023-02-08T07:36:30;103768.44;;;-1.00;100.00
66273;BME280;58450;52.150;4.466;2023-02-08T07:38:57;103762.97;;;-0.94;100.00
66273;BME280;58450;52.150;4.466;2023-02-08T07:41:25;103765.06;;;-0.72;100.00
66273;BME280;58450;52.150;4.466;2023-02-08T07:43:52;103775.09;;;-0.50;100.00
66273;BME280;58450;52.150;4.466;2023-02-08T07:46:20;103777.75;;;-0.50;100.00
66273;BME280;58450;52.150;4.466;2023-02-08T07:48:48;103779.84;;;-0.32;100.00
66273;BME280;58450;52.150;4.466;2023-02-08T07:51:16;103769.66;;;-0.14;100.00
66273;BME280;58450;52.150;4.466;2023-02-08T07:53:44;103769.06;;;0.06;100.00
66273;BME280;58450;52.150;4.466;2023-02-08T07:56:12;103769.41;;;0.54;100.00
66273;BME280;58450;52.150;4.466;2023-02-08T07:58:39;103757.19;;;1.03;100.00
66273;BME280;58450;52.150;4.466;2023-02-08T08:01:07;103769.56;;;1.79;100.00
66273;BME280;58450;52.150;4.466;2023-02-08T08:03:35;103761.16;;;1.91;100.00
66273;BME280;58450;52.150;4.466;2023-02-08T08:06:02;103770.06;;;1.67;100.00
66273;BME280;58450;52.150;4.466;2023-02-08T08:08:30;103770.38;;;1.57;100.00
66273;BME280;58450;52.150;4.466;2023-02-08T08:10:59;103774.00;;;1.02;100.00
66273;BME280;58450;52.150;4.466;2023-02-08T08:13:27;103772.34;;;1.00;100.00
66273;BME280;58450;52.150;4.466;2023-02-08T08:15:54;103770.66;;;0.97;100.00
66273;BME280;58450;52.150;4.466;2023-02-08T08:18:22;103774.72;;;1.08;100.00
66273;BME280;58450;52.150;4.466;2023-02-08T08:20:49;103776.00;;;1.23;100.00
66273;BME280;58450;52.150;4.466;2023-02-08T08:23:17;103786.31;;;1.32;100.00
66273;BME280;58450;52.150;4.466;2023-02-08T08:25:45;103781.53;;;1.42;100.00
66273;BME280;58450;52.150;4.466;2023-02-08T08:28:15;103784.66;;;1.79;100.00
66273;BME280;58450;52.150;4.466;2023-02-08T08:30:43;103778.09;;;2.13;100.00
66273;BME280;58450;52.150;4.466;2023-02-08T08:33:12;103770.75;;;2.42;100.00
66273;BME280;58450;52.150;4.466;2023-02-08T08:35:40;103766.31;;;3.07;100.00
66273;BME280;58450;52.150;4.466;2023-02-08T08:38:09;103759.75;;;3.77;100.00
66273;BME280;58450;52.150;4.466;2023-02-08T08:40:36;103756.38;;;4.31;100.00
66273;BME280;58450;52.150;4.466;2023-02-08T08:43:04;103748.91;;;3.42;100.00
66273;BME280;58450;52.150;4.466;2023-02-08T08:45:33;103755.06;;;4.39;100.00
66273;BME280;58450;52.150;4.466;2023-02-08T08:48:02;103754.94;;;5.14;100.00
66273;BME280;58450;52.150;4.466;2023-02-08T08:50:29;103755.72;;;5.68;100.00
66273;BME280;58450;52.150;4.466;2023-02-08T08:52:57;103750.09;;;6.06;100.00
66273;BME280;58450;52.150;4.466;2023-02-08T08:55:24;103742.00;;;6.56;100.00
66273;BME280;58450;52.150;4.466;2023-02-08T08:57:53;103748.97;;;6.89;99.94
66273;BME280;58450;52.150;4.466;2023-02-08T09:00:21;103739.44;;;6.99;96.50
66273;BME280;58450;52.150;4.466;2023-02-08T09:02:50;103746.69;;;7.28;95.49
66273;BME280;58450;52.150;4.466;2023-02-08T09:05:17;103749.28;;;7.58;93.65
66273;BME280;58450;52.150;4.466;2023-02-08T09:07:45;103750.72;;;7.93;90.71
66273;BME280;58450;52.150;4.466;2023-02-08T09:10:12;103757.75;;;8.23;88.45
66273;BME280;58450;52.150;4.466;2023-02-08T09:12:40;103756.22;;;8.46;85.13
66273;BME280;58450;52.150;4.466;2023-02-08T09:15:08;103762.75;;;8.56;82.53
66273;BME280;58450;52.150;4.466;2023-02-08T09:17:36;103758.47;;;8.54;79.62
66273;BME280;58450;52.150;4.466;2023-02-08T09:20:06;103754.59;;;8.58;78.01
66273;BME280;58450;52.150;4.466;2023-02-08T09:22:33;103752.66;;;8.87;77.49
66273;BME280;58450;52.150;4.466;2023-02-08T09:25:01;103762.03;;;9.08;75.17
66273;BME280;58450;52.150;4.466;2023-02-08T09:27:29;103755.59;;;9.10;73.42
66273;BME280;58450;52.150;4.466;2023-02-08T09:29:56;103760.94;;;8.97;73.69
66273;BME280;58450;52.150;4.466;2023-02-08T09:32:24;103758.91;;;8.19;69.30
66273;BME280;58450;52.150;4.466;2023-02-08T09:34:51;103757.91;;;7.63;74.00
66273;BME280;58450;52.150;4.466;2023-02-08T09:37:20;103754.81;;;6.81;77.82
66273;BME280;58450;52.150;4.466;2023-02-08T09:39:47;103769.09;;;6.17;82.17
66273;BME280;58450;52.150;4.466;2023-02-08T09:42:23;103771.31;;;5.42;87.30
66273;BME280;58450;52.150;4.466;2023-02-08T09:45:08;103766.56;;;4.96;93.61
66273;BME280;58450;52.150;4.466;2023-02-08T09:47:54;103757.53;;;4.81;97.38
66273;BME280;58450;52.150;4.466;2023-02-08T09:50:36;103760.19;;;4.81;99.15
66273;BME280;58450;52.150;4.466;2023-02-08T09:53:12;103755.00;;;4.78;100.00
66273;BME280;58450;52.150;4.466;2023-02-08T09:55:47;103753.13;;;4.80;100.00
66273;BME280;58450;52.150;4.466;2023-02-08T09:58:22;103756.88;;;4.76;100.00
66273;BME280;58450;52.150;4.466;2023-02-08T10:00:53;103761.75;;;4.85;100.00
66273;BME280;58450;52.150;4.466;2023-02-08T10:03:27;103769.94;;;4.63;100.00
66273;BME280;58450;52.150;4.466;2023-02-08T10:06:00;103772.66;;;4.43;100.00
66273;BME280;58450;52.150;4.466;2023-02-08T10:08:30;103775.47;;;4.40;100.00
66273;BME280;58450;52.150;4.466;2023-02-08T10:11:04;103776.66;;;4.52;100.00
66273;BME280;58450;52.150;4.466;2023-02-08T10:16:53;103778.19;;;4.58;100.00
66273;BME280;58450;52.150;4.466;2023-02-08T10:19:38;103782.00;;;4.71;100.00
66273;BME280;58450;52.150;4.466;2023-02-08T10:22:25;103788.91;;;4.93;100.00
66273;BME280;58450;52.150;4.466;2023-02-08T10:28:25;103784.38;;;5.98;100.00
66273;BME280;58450;52.150;4.466;2023-02-08T10:31:09;103779.19;;;6.91;100.00
66273;BME280;58450;52.150;4.466;2023-02-08T10:33:53;103779.16;;;7.81;98.80
66273;BME280;58450;52.150;4.466;2023-02-08T10:36:30;103782.63;;;8.54;92.37
66273;BME280;58450;52.150;4.466;2023-02-08T10:39:02;103778.69;;;9.13;88.09
66273;BME280;58450;52.150;4.466;2023-02-08T10:41:42;103785.19;;;9.49;81.65
66273;BME280;58450;52.150;4.466;2023-02-08T10:44:19;103781.50;;;9.89;80.41
66273;BME280;58450;52.150;4.466;2023-02-08T10:47:06;103778.19;;;9.21;71.75
66273;BME280;58450;52.150;4.466;2023-02-08T10:49:45;103771.63;;;9.64;76.22
66273;BME280;58450;52.150;4.466;2023-02-08T10:52:19;103765.00;;;10.07;74.09
66273;BME280;58450;52.150;4.466;2023-02-08T10:54:47;103757.34;;;10.38;72.31
66273;BME280;58450;52.150;4.466;2023-02-08T10:57:18;103759.75;;;10.67;70.92
66273;BME280;58450;52.150;4.466;2023-02-08T10:59:48;103749.41;;;10.85;68.59
66273;BME280;58450;52.150;4.466;2023-02-08T11:02:21;103750.44;;;11.06;66.98
66273;BME280;58450;52.150;4.466;2023-02-08T11:04:58;103750.56;;;11.16;66.44
66273;BME280;58450;52.150;4.466;2023-02-08T11:07:28;103745.94;;;11.18;65.52
66273;BME280;58450;52.150;4.466;2023-02-08T11:10:19;103742.97;;;11.10;63.55
66273;BME280;58450;52.150;4.466;2023-02-08T11:12:56;103736.22;;;11.04;64.11
66273;BME280;58450;52.150;4.466;2023-02-08T11:15:28;103739.28;;;11.00;64.14
66273;BME280;58450;52.150;4.466;2023-02-08T11:18:05;103732.81;;;10.67;63.48
66273;BME280;58450;52.150;4.466;2023-02-08T11:20:46;103719.88;;;10.10;63.66
66273;BME280;58450;52.150;4.466;2023-02-08T11:23:22;103731.63;;;9.59;65.45
66273;BME280;58450;52.150;4.466;2023-02-08T11:25:53;103724.09;;;8.99;68.04
66273;BME280;58450;52.150;4.466;2023-02-08T11:28:26;103720.06;;;8.39;70.27
66273;BME280;58450;52.150;4.466;2023-02-08T11:30:58;103733.38;;;7.55;77.65
66273;BME280;58450;52.150;4.466;2023-02-08T11:33:28;103719.06;;;7.42;81.14
66273;BME280;58450;52.150;4.466;2023-02-08T11:35:59;103712.72;;;7.28;84.57
66273;BME280;58450;52.150;4.466;2023-02-08T11:38:32;103711.25;;;6.93;88.72
66273;BME280;58450;52.150;4.466;2023-02-08T11:41:03;103706.63;;;6.81;90.51
66273;BME280;58450;52.150;4.466;2023-02-08T11:43:42;103704.97;;;6.48;92.47
66273;BME280;58450;52.150;4.466;2023-02-08T11:46:21;103698.69;;;6.33;95.37
66273;BME280;58450;52.150;4.466;2023-02-08T11:48:51;103680.00;;;6.01;95.81
66273;BME280;58450;52.150;4.466;2023-02-08T11:51:26;103690.38;;;5.89;98.86
66273;BME280;58450;52.150;4.466;2023-02-08T11:53:57;103680.66;;;5.88;99.80
66273;BME280;58450;52.150;4.466;2023-02-08T11:56:27;103693.50;;;5.82;100.00
66273;BME280;58450;52.150;4.466;2023-02-08T11:59:00;103686.09;;;5.71;100.00
66273;BME280;58450;52.150;4.466;2023-02-08T12:01:31;103689.53;;;5.73;100.00
66273;BME280;58450;52.150;4.466;2023-02-08T12:04:01;103670.72;;;5.74;98.82
66273;BME280;58450;52.150;4.466;2023-02-08T12:06:58;103666.00;;;5.80;98.51
66273;BME280;58450;52.150;4.466;2023-02-08T12:12:52;103657.47;;;5.73;92.57
66273;BME280;58450;52.150;4.466;2023-02-08T12:15:44;103655.97;;;5.83;95.47
66273;BME280;58450;52.150;4.466;2023-02-08T12:18:34;103637.97;;;5.87;93.76
66273;BME280;58450;52.150;4.466;2023-02-08T12:21:17;103640.31;;;6.09;91.01
66273;BME280;58450;52.150;4.466;2023-02-08T12:23:51;103637.25;;;6.31;90.67
66273;BME280;58450;52.150;4.466;2023-02-08T12:26:32;103631.88;;;6.47;90.30
66273;BME280;58450;52.150;4.466;2023-02-08T12:29:39;103633.91;;;6.58;85.86
66273;BME280;58450;52.150;4.466;2023-02-08T12:35:34;103625.47;;;6.95;81.82
66273;BME280;58450;52.150;4.466;2023-02-08T12:38:17;103616.09;;;7.46;81.52
66273;BME280;58450;52.150;4.466;2023-02-08T12:41:21;103617.38;;;7.67;72.79
66273;BME280;58450;52.150;4.466;2023-02-08T12:44:01;103616.13;;;8.41;72.77
66273;BME280;58450;52.150;4.466;2023-02-08T12:46:49;103617.63;;;8.72;63.42
66273;BME280;58450;52.150;4.466;2023-02-08T12:49:37;103624.72;;;8.86;57.81
66273;BME280;58450;52.150;4.466;2023-02-08T12:52:30;103604.28;;;9.23;53.38
66273;BME280;58450;52.150;4.466;2023-02-08T12:55:08;103616.97;;;9.08;49.06
66273;BME280;58450;52.150;4.466;2023-02-08T12:57:45;103614.88;;;9.37;47.40
66273;BME280;58450;52.150;4.466;2023-02-08T13:00:18;103613.31;;;9.22;45.62
66273;BME280;58450;52.150;4.466;2023-02-08T13:02:55;103600.75;;;10.08;48.64
66273;BME280;58450;52.150;4.466;2023-02-08T13:05:33;103590.88;;;10.20;42.65
66273;BME280;58450;52.150;4.466;2023-02-08T13:08:12;103594.88;;;10.97;41.50
66273;BME280;58450;52.150;4.466;2023-02-08T13:10:54;103596.66;;;12.09;39.98
66273;BME280;58450;52.150;4.466;2023-02-08T13:13:29;103592.97;;;13.05;36.78
66273;BME280;58450;52.150;4.466;2023-02-08T13:16:04;103581.09;;;14.07;36.26
66273;BME280;58450;52.150;4.466;2023-02-08T13:18:42;103580.06;;;14.18;33.32
66273;BME280;58450;52.150;4.466;2023-02-08T13:21:19;103574.59;;;14.77;32.73
66273;BME280;58450;52.150;4.466;2023-02-08T13:23:50;103579.34;;;16.13;32.19
66273;BME280;58450;52.150;4.466;2023-02-08T13:26:21;103577.34;;;16.42;30.58
66273;BME280;58450;52.150;4.466;2023-02-08T13:28:54;103577.78;;;15.28;29.41